createdAt,value
2018-02-21T00:00:55.733Z,104.40
2018-02-21T00:01:55.699Z,103.10
2018-02-21T00:02:55.674Z,103.80
2018-02-21T00:03:55.640Z,102.20
2018-02-21T00:04:55.618Z,101.60
2018-02-21T00:05:55.588Z,102.50
2018-02-21T00:06:55.559Z,103.80
2018-02-21T00:07:55.525Z,102.70
2018-02-21T00:08:55.498Z,100.10
2018-02-21T00:09:55.470Z,105.30
2018-02-21T00:10:55.439Z,105.70
2018-02-21T00:11:55.408Z,102.40
2018-02-21T00:12:55.382Z,105.10
2018-02-21T00:13:55.356Z,105.30
2018-02-21T00:14:55.327Z,105.90
2018-02-21T00:15:55.294Z,103.60
2018-02-21T00:16:55.267Z,103.80
2018-02-21T00:17:55.240Z,105.20
2018-02-21T00:18:55.213Z,104.20
2018-02-21T00:19:55.177Z,105.50
2018-02-21T00:20:55.161Z,104.30
2018-02-21T00:21:55.122Z,104.10
2018-02-21T00:22:55.095Z,103.00
2018-02-21T00:23:55.063Z,102.50
2018-02-21T00:24:55.034Z,103.90
2018-02-21T00:25:55.009Z,104.10
2018-02-21T00:26:54.977Z,106.50
2018-02-21T00:27:54.944Z,106.60
2018-02-21T00:28:54.918Z,102.10
2018-02-21T00:29:54.892Z,102.30
2018-02-21T00:30:54.863Z,106.80
2018-02-21T00:31:54.833Z,105.40
2018-02-21T00:32:54.806Z,111.80
2018-02-21T00:33:54.776Z,104.00
2018-02-21T00:34:54.742Z,109.80
2018-02-21T00:35:54.719Z,104.40
2018-02-21T00:36:54.684Z,105.10
2018-02-21T00:37:54.661Z,108.00
2018-02-21T00:38:54.626Z,105.60
2018-02-21T00:39:54.601Z,108.30
2018-02-21T00:40:54.570Z,106.10
2018-02-21T00:41:54.542Z,104.60
2018-02-21T00:42:54.515Z,105.80
2018-02-21T00:43:54.483Z,104.20
2018-02-21T00:44:54.450Z,103.40
2018-02-21T00:45:54.426Z,104.10
2018-02-21T00:46:54.399Z,104.50
2018-02-21T00:47:54.365Z,103.30
2018-02-21T00:48:54.336Z,104.00
2018-02-21T00:49:54.311Z,104.60
2018-02-21T00:50:54.284Z,103.60
2018-02-21T00:51:54.251Z,102.80
2018-02-21T00:52:54.225Z,103.10
2018-02-21T00:53:54.190Z,103.40
2018-02-21T00:54:54.168Z,103.80
2018-02-21T00:55:54.131Z,104.70
2018-02-21T00:56:54.102Z,103.10
2018-02-21T00:57:54.079Z,107.00
2018-02-21T00:58:54.050Z,109.60
2018-02-21T00:59:54.018Z,102.20
2018-02-21T01:00:53.994Z,104.20
2018-02-21T01:01:53.956Z,109.10
2018-02-21T01:02:53.937Z,106.20
2018-02-21T01:03:53.907Z,110.20
2018-02-21T01:04:53.876Z,106.60
2018-02-21T01:05:53.841Z,106.80
2018-02-21T01:06:53.818Z,104.30
2018-02-21T01:07:53.784Z,109.00
2018-02-21T01:08:53.757Z,106.70
2018-02-21T01:09:53.732Z,100.60
2018-02-21T01:10:53.702Z,105.70
2018-02-21T01:11:53.666Z,104.10
2018-02-21T01:12:53.653Z,100.10
2018-02-21T01:13:53.611Z,99.80
2018-02-21T01:14:53.582Z,101.80
2018-02-21T01:15:53.557Z,104.00
2018-02-21T01:16:53.525Z,100.10
2018-02-21T01:17:53.500Z,100.20
2018-02-21T01:18:53.466Z,99.30
2018-02-21T01:19:53.442Z,100.40
2018-02-21T01:20:53.410Z,99.30
2018-02-21T01:21:53.385Z,96.60
2018-02-21T01:22:53.357Z,95.70
2018-02-21T01:23:53.326Z,99.40
2018-02-21T01:24:53.301Z,98.00
2018-02-21T01:25:53.265Z,100.90
2018-02-21T01:26:53.238Z,101.70
2018-02-21T01:27:53.211Z,102.90
2018-02-21T01:28:53.179Z,105.70
2018-02-21T01:29:53.154Z,102.80
2018-02-21T01:30:53.125Z,104.10
2018-02-21T01:31:53.092Z,103.00
2018-02-21T01:32:53.061Z,107.20
2018-02-21T01:33:53.040Z,107.80
2018-02-21T01:34:53.010Z,105.90
2018-02-21T01:35:52.977Z,105.10
2018-02-21T01:36:52.949Z,107.70
2018-02-21T01:37:52.925Z,109.30
2018-02-21T01:38:52.895Z,109.10
2018-02-21T01:39:52.862Z,109.40
2018-02-21T01:40:52.836Z,112.50
2018-02-21T01:41:52.810Z,113.60
2018-02-21T01:42:52.782Z,109.90
2018-02-21T01:43:52.748Z,106.00
2018-02-21T01:44:52.720Z,111.40
2018-02-21T01:45:52.692Z,108.80
2018-02-21T01:46:52.663Z,108.60
2018-02-21T01:47:52.628Z,108.80
2018-02-21T01:48:52.608Z,108.10
2018-02-21T01:49:52.575Z,106.30
2018-02-21T01:50:52.548Z,106.80
2018-02-21T01:51:52.515Z,104.80
2018-02-21T01:52:52.490Z,107.30
2018-02-21T01:53:52.459Z,105.10
2018-02-21T01:54:52.432Z,107.00
2018-02-21T01:55:52.424Z,105.90
2018-02-21T01:56:52.370Z,104.60
2018-02-21T01:57:52.346Z,104.80
2018-02-21T01:58:52.317Z,104.60
2018-02-21T01:59:52.285Z,104.70
2018-02-21T02:00:52.252Z,108.10
2018-02-21T02:01:52.229Z,103.20
2018-02-21T02:02:52.199Z,102.90
2018-02-21T02:03:52.172Z,105.20
2018-02-21T02:04:52.143Z,101.20
2018-02-21T02:05:52.115Z,102.00
2018-02-21T02:06:52.082Z,102.90
2018-02-21T02:07:52.058Z,102.00
2018-02-21T02:08:52.027Z,100.50
2018-02-21T02:09:52.001Z,100.70
2018-02-21T02:10:51.970Z,106.20
2018-02-21T02:11:51.938Z,102.20
2018-02-21T02:12:51.911Z,104.70
2018-02-21T02:13:51.884Z,106.90
2018-02-21T02:14:51.854Z,108.70
2018-02-21T02:15:51.821Z,102.20
2018-02-21T02:16:51.797Z,101.60
2018-02-21T02:17:51.763Z,101.20
2018-02-21T02:18:51.739Z,106.30
2018-02-21T02:19:51.704Z,106.70
2018-02-21T02:20:51.673Z,101.80
2018-02-21T02:21:51.652Z,107.30
2018-02-21T02:22:51.623Z,102.40
2018-02-21T02:23:51.590Z,103.00
2018-02-21T02:24:51.563Z,101.70
2018-02-21T02:25:51.536Z,101.80
2018-02-21T02:26:51.503Z,102.30
2018-02-21T02:27:51.476Z,98.50
2018-02-21T02:28:51.459Z,98.50
2018-02-21T02:29:51.419Z,101.00
2018-02-21T02:30:51.386Z,95.00
2018-02-21T02:31:51.363Z,100.30
2018-02-21T02:32:51.326Z,100.60
2018-02-21T02:33:51.301Z,101.20
2018-02-21T02:34:51.271Z,103.40
2018-02-21T02:35:51.244Z,100.00
2018-02-21T02:36:51.213Z,103.60
2018-02-21T02:37:51.184Z,105.10
2018-02-21T02:38:51.155Z,102.70
2018-02-21T02:39:51.133Z,104.10
2018-02-21T02:40:51.098Z,100.90
2018-02-21T02:41:51.067Z,101.40
2018-02-21T02:42:51.040Z,101.20
2018-02-21T02:43:51.010Z,104.20
2018-02-21T02:44:50.980Z,106.00
2018-02-21T02:45:50.953Z,108.50
2018-02-21T02:46:50.927Z,102.80
2018-02-21T02:47:50.890Z,102.00
2018-02-21T02:48:50.862Z,106.10
2018-02-21T02:49:50.835Z,104.70
2018-02-21T02:50:50.806Z,104.60
2018-02-21T02:51:50.775Z,102.00
2018-02-21T02:52:50.743Z,100.70
2018-02-21T02:53:50.742Z,100.40
2018-02-21T02:54:50.765Z,106.20
2018-02-21T02:55:50.659Z,101.80
2018-02-21T02:56:50.630Z,102.10
2018-02-21T02:57:50.604Z,103.30
2018-02-21T02:58:50.571Z,101.60
2018-02-21T02:59:50.542Z,102.90
2018-02-21T03:00:50.514Z,102.00
2018-02-21T03:01:50.487Z,107.30
2018-02-21T03:02:50.457Z,102.50
2018-02-21T03:03:50.422Z,102.20
2018-02-21T03:04:50.399Z,101.50
2018-02-21T03:05:50.376Z,102.70
2018-02-21T03:06:50.344Z,101.90
2018-02-21T03:07:50.310Z,104.30
2018-02-21T03:08:50.278Z,100.10
2018-02-21T03:09:50.252Z,105.90
2018-02-21T03:10:50.222Z,103.10
2018-02-21T03:11:50.193Z,104.10
2018-02-21T03:12:50.162Z,102.50
2018-02-21T03:13:50.136Z,101.80
2018-02-21T03:14:50.108Z,102.10
2018-02-21T03:15:50.079Z,101.10
2018-02-21T03:16:50.046Z,102.90
2018-02-21T03:17:50.025Z,104.50
2018-02-21T03:18:49.987Z,104.30
2018-02-21T03:19:49.961Z,101.40
2018-02-21T03:20:49.931Z,103.40
2018-02-21T03:21:49.903Z,103.40
2018-02-21T03:22:49.874Z,106.20
2018-02-21T03:23:49.840Z,102.50
2018-02-21T03:24:49.816Z,104.00
2018-02-21T03:25:49.782Z,105.80
2018-02-21T03:26:49.757Z,105.00
2018-02-21T03:27:49.725Z,108.80
2018-02-21T03:28:49.698Z,110.30
2018-02-21T03:29:49.665Z,108.30
2018-02-21T03:30:49.638Z,114.20
2018-02-21T03:31:49.612Z,114.10
2018-02-21T03:32:49.582Z,115.30
2018-02-21T03:33:49.560Z,110.30
2018-02-21T03:34:49.527Z,105.90
2018-02-21T03:35:49.493Z,107.30
2018-02-21T03:36:49.462Z,108.60
2018-02-21T03:37:49.435Z,113.30
2018-02-21T03:38:49.407Z,111.90
2018-02-21T03:39:49.380Z,110.40
2018-02-21T03:40:49.347Z,109.00
2018-02-21T03:41:49.322Z,112.70
2018-02-21T03:42:49.292Z,111.90
2018-02-21T03:43:49.261Z,120.80
2018-02-21T03:44:49.230Z,118.40
2018-02-21T03:45:49.205Z,110.90
2018-02-21T03:46:49.171Z,113.80
2018-02-21T03:47:49.145Z,115.30
2018-02-21T03:48:49.114Z,114.70
2018-02-21T03:49:49.091Z,114.10
2018-02-21T03:50:49.061Z,111.20
2018-02-21T03:51:49.028Z,114.70
2018-02-21T03:52:49.002Z,110.90
2018-02-21T03:53:48.976Z,114.30
2018-02-21T03:54:48.940Z,115.50
2018-02-21T03:55:48.918Z,114.20
2018-02-21T03:56:48.895Z,116.90
2018-02-21T03:57:48.861Z,119.10
2018-02-21T03:58:48.824Z,121.20
2018-02-21T03:59:48.802Z,121.30
2018-02-21T04:00:48.767Z,122.50
2018-02-21T04:01:48.745Z,117.90
2018-02-21T04:02:48.711Z,123.00
2018-02-21T04:03:48.682Z,120.70
2018-02-21T04:04:48.654Z,119.70
2018-02-21T04:05:48.628Z,123.00
2018-02-21T04:06:48.601Z,119.20
2018-02-21T04:07:48.569Z,120.10
2018-02-21T04:08:48.541Z,121.90
2018-02-21T04:09:48.509Z,117.10
2018-02-21T04:10:48.496Z,118.80
2018-02-21T04:11:48.455Z,123.50
2018-02-21T04:12:48.427Z,120.60
2018-02-21T04:13:48.394Z,119.50
2018-02-21T04:14:48.371Z,116.60
2018-02-21T04:15:48.336Z,115.60
2018-02-21T04:16:48.311Z,115.80
2018-02-21T04:17:48.285Z,121.70
2018-02-21T04:18:48.254Z,118.10
2018-02-21T04:19:48.226Z,118.80
2018-02-21T04:20:48.198Z,117.80
2018-02-21T04:21:48.171Z,119.90
2018-02-21T04:22:48.139Z,116.80
2018-02-21T04:23:48.111Z,120.00
2018-02-21T04:24:48.083Z,119.60
2018-02-21T04:25:48.052Z,116.50
2018-02-21T04:26:48.030Z,117.70
2018-02-21T04:27:47.994Z,119.50
2018-02-21T04:28:47.968Z,118.10
2018-02-21T04:29:47.940Z,119.20
2018-02-21T04:30:47.911Z,114.50
2018-02-21T04:31:47.878Z,116.50
2018-02-21T04:32:47.850Z,119.70
2018-02-21T04:33:47.825Z,116.40
2018-02-21T04:34:47.795Z,116.80
2018-02-21T04:35:47.769Z,118.00
2018-02-21T04:36:47.741Z,118.90
2018-02-21T04:37:47.711Z,121.60
2018-02-21T04:38:47.682Z,118.30
2018-02-21T04:39:47.649Z,121.20
2018-02-21T04:40:47.624Z,116.60
2018-02-21T04:41:47.596Z,125.30
2018-02-21T04:42:47.565Z,121.80
2018-02-21T04:43:47.538Z,122.10
2018-02-21T04:44:47.514Z,124.30
2018-02-21T04:45:47.480Z,121.80
2018-02-21T04:46:47.448Z,120.10
2018-02-21T04:47:47.426Z,117.50
2018-02-21T04:48:47.401Z,120.40
2018-02-21T04:49:47.365Z,121.20
2018-02-21T04:50:47.336Z,118.70
2018-02-21T04:51:47.308Z,121.60
2018-02-21T04:52:47.279Z,118.00
2018-02-21T04:53:47.255Z,123.20
2018-02-21T04:54:47.225Z,124.20
2018-02-21T04:55:47.194Z,123.60
2018-02-21T04:56:47.170Z,121.80
2018-02-21T04:57:47.140Z,119.60
2018-02-21T04:58:47.111Z,122.20
2018-02-21T04:59:47.079Z,116.70
2018-02-21T05:00:47.054Z,122.40
2018-02-21T05:01:47.029Z,121.30
2018-02-21T05:02:47.000Z,122.80
2018-02-21T05:03:46.966Z,123.10
2018-02-21T05:04:46.938Z,120.60
2018-02-21T05:05:46.913Z,122.50
2018-02-21T05:06:46.881Z,121.60
2018-02-21T05:07:46.857Z,124.60
2018-02-21T05:08:46.822Z,123.10
2018-02-21T05:09:46.798Z,123.10
2018-02-21T05:10:46.767Z,121.80
2018-02-21T05:11:46.742Z,119.20
2018-02-21T05:12:46.711Z,126.20
2018-02-21T05:13:46.685Z,126.40
2018-02-21T05:14:46.652Z,124.90
2018-02-21T05:15:46.626Z,123.40
2018-02-21T05:16:46.598Z,130.30
2018-02-21T05:17:46.569Z,125.80
2018-02-21T05:18:46.542Z,126.30
2018-02-21T05:19:46.512Z,132.80
2018-02-21T05:20:46.484Z,126.60
2018-02-21T05:21:46.451Z,130.50
2018-02-21T05:22:46.428Z,137.50
2018-02-21T05:23:46.397Z,130.00
2018-02-21T05:24:46.367Z,135.30
2018-02-21T05:25:46.341Z,133.20
2018-02-21T05:26:46.314Z,138.20
2018-02-21T05:27:46.282Z,138.10
2018-02-21T05:28:46.251Z,139.10
2018-02-21T05:29:46.225Z,140.40
2018-02-21T05:30:46.197Z,141.50
2018-02-21T05:31:46.164Z,142.40
2018-02-21T05:32:46.143Z,142.90
2018-02-21T05:33:46.108Z,146.60
2018-02-21T05:34:46.084Z,142.40
2018-02-21T05:35:46.051Z,146.40
2018-02-21T05:36:46.028Z,145.60
2018-02-21T05:37:45.994Z,153.10
2018-02-21T05:38:45.972Z,148.70
2018-02-21T05:39:45.937Z,148.30
2018-02-21T05:40:45.906Z,144.00
2018-02-21T05:41:45.882Z,148.20
2018-02-21T05:42:45.852Z,151.20
2018-02-21T05:43:45.825Z,147.30
2018-02-21T05:44:45.792Z,147.40
2018-02-21T05:45:45.768Z,152.20
2018-02-21T05:46:45.735Z,142.90
2018-02-21T05:47:45.710Z,147.80
2018-02-21T05:48:45.677Z,155.10
2018-02-21T05:49:45.654Z,150.70
2018-02-21T05:50:45.623Z,154.70
2018-02-21T05:51:45.599Z,156.10
2018-02-21T05:52:45.560Z,151.00
2018-02-21T05:53:45.540Z,157.10
2018-02-21T05:54:45.506Z,150.50
2018-02-21T05:55:45.475Z,153.90
2018-02-21T05:56:45.448Z,152.90
2018-02-21T05:57:45.418Z,152.60
2018-02-21T05:58:45.392Z,153.80
2018-02-21T05:59:45.363Z,156.20
2018-02-21T06:00:45.333Z,160.20
2018-02-21T06:01:45.302Z,155.40
2018-02-21T06:02:45.272Z,158.00
2018-02-21T06:03:45.246Z,161.50
2018-02-21T06:04:45.216Z,163.80
2018-02-21T06:05:45.189Z,158.40
2018-02-21T06:06:45.155Z,159.30
2018-02-21T06:07:45.129Z,160.90
2018-02-21T06:08:45.098Z,165.70
2018-02-21T06:09:45.074Z,167.10
2018-02-21T06:10:45.044Z,156.10
2018-02-21T06:11:45.014Z,159.70
2018-02-21T06:12:44.986Z,164.30
2018-02-21T06:13:44.969Z,167.90
2018-02-21T06:14:44.924Z,166.30
2018-02-21T06:15:44.901Z,171.80
2018-02-21T06:16:44.866Z,168.00
2018-02-21T06:17:44.841Z,173.20
2018-02-21T06:18:44.815Z,169.80
2018-02-21T06:19:44.781Z,164.70
2018-02-21T06:20:44.754Z,172.80
2018-02-21T06:21:44.723Z,172.30
2018-02-21T06:22:44.695Z,169.60
2018-02-21T06:23:44.664Z,166.50
2018-02-21T06:24:44.633Z,167.50
2018-02-21T06:25:44.607Z,168.20
2018-02-21T06:26:44.582Z,163.00
2018-02-21T06:27:44.550Z,163.00
2018-02-21T06:28:44.520Z,167.40
2018-02-21T06:29:44.491Z,165.80
2018-02-21T06:30:44.462Z,175.50
2018-02-21T06:31:44.428Z,173.80
2018-02-21T06:32:44.401Z,166.70
2018-02-21T06:33:44.380Z,171.40
2018-02-21T06:34:44.347Z,165.70
2018-02-21T06:35:44.315Z,168.00
2018-02-21T06:36:44.295Z,169.80
2018-02-21T06:37:44.258Z,168.50
2018-02-21T06:38:44.234Z,169.00
2018-02-21T06:39:44.196Z,165.20
2018-02-21T06:40:44.167Z,168.30
2018-02-21T06:41:44.141Z,168.30
2018-02-21T06:42:44.112Z,169.70
2018-02-21T06:43:44.078Z,173.10
2018-02-21T06:44:44.054Z,175.20
2018-02-21T06:45:44.022Z,175.00
2018-02-21T06:46:44.001Z,167.10
2018-02-21T06:47:43.964Z,175.90
2018-02-21T06:48:43.935Z,167.70
2018-02-21T06:49:43.912Z,166.90
2018-02-21T06:50:43.882Z,175.00
2018-02-21T06:51:43.863Z,171.40
2018-02-21T06:52:43.820Z,178.40
2018-02-21T06:53:43.789Z,177.10
2018-02-21T06:54:43.763Z,172.70
2018-02-21T06:55:43.733Z,172.10
2018-02-21T06:56:43.793Z,176.80
2018-02-21T06:57:46.097Z,175.10
2018-02-21T06:58:43.647Z,174.10
2018-02-21T06:59:43.617Z,179.70
2018-02-21T07:00:43.584Z,177.90
2018-02-21T07:01:43.559Z,171.10
2018-02-21T07:02:43.529Z,174.90
2018-02-21T07:03:43.497Z,171.60
2018-02-21T07:04:43.470Z,171.30
2018-02-21T07:05:43.439Z,169.00
2018-02-21T07:06:43.443Z,175.60
2018-02-21T07:07:43.393Z,172.00
2018-02-21T07:08:43.353Z,177.00
2018-02-21T07:09:43.325Z,176.20
2018-02-21T07:10:43.297Z,176.70
2018-02-21T07:11:43.266Z,175.30
2018-02-21T07:12:43.232Z,169.20
2018-02-21T07:13:43.209Z,172.10
2018-02-21T07:14:43.178Z,173.10
2018-02-21T07:15:43.146Z,171.90
2018-02-21T07:16:43.119Z,172.10
2018-02-21T07:17:43.090Z,164.70
2018-02-21T07:18:43.062Z,169.90
2018-02-21T07:19:43.033Z,171.50
2018-02-21T07:20:43.002Z,165.20
2018-02-21T07:21:42.976Z,169.50
2018-02-21T07:22:42.962Z,167.20
2018-02-21T07:23:42.917Z,169.10
2018-02-21T07:24:42.896Z,172.80
2018-02-21T07:25:42.858Z,176.10
2018-02-21T07:26:42.826Z,174.40
2018-02-21T07:27:42.803Z,169.70
2018-02-21T07:28:42.772Z,169.50
2018-02-21T07:29:42.739Z,170.60
2018-02-21T07:30:42.710Z,162.50
2018-02-21T07:31:42.685Z,174.70
2018-02-21T07:32:42.656Z,171.90
2018-02-21T07:33:42.628Z,171.60
2018-02-21T07:34:42.593Z,164.70
2018-02-21T07:35:42.565Z,170.20
2018-02-21T07:36:42.541Z,169.40
2018-02-21T07:37:42.507Z,164.90
2018-02-21T07:38:42.478Z,169.70
2018-02-21T07:39:42.451Z,161.00
2018-02-21T07:40:42.419Z,155.30
2018-02-21T07:41:42.395Z,157.00
2018-02-21T07:42:42.362Z,160.00
2018-02-21T07:43:42.335Z,154.50
2018-02-21T07:44:42.301Z,153.60
2018-02-21T07:45:42.283Z,156.40
2018-02-21T07:46:42.244Z,154.30
2018-02-21T07:47:42.218Z,158.40
2018-02-21T07:48:42.187Z,147.40
2018-02-21T07:49:42.160Z,153.60
2018-02-21T07:50:42.133Z,146.00
2018-02-21T07:51:42.098Z,151.30
2018-02-21T07:52:42.074Z,151.50
2018-02-21T07:53:42.046Z,149.60
2018-02-21T07:54:42.016Z,146.60
2018-02-21T07:55:41.989Z,150.60
2018-02-21T07:56:41.961Z,151.30
2018-02-21T07:57:41.926Z,155.10
2018-02-21T07:58:41.900Z,150.30
2018-02-21T07:59:41.865Z,157.30
2018-02-21T08:00:41.841Z,152.20
2018-02-21T08:01:41.859Z,151.70
2018-02-21T08:02:41.853Z,153.40
2018-02-21T08:03:41.767Z,151.50
2018-02-21T08:04:41.722Z,151.80
2018-02-21T08:05:41.697Z,149.00
2018-02-21T08:06:41.673Z,144.40
2018-02-21T08:07:41.638Z,147.80
2018-02-21T08:08:41.607Z,147.20
2018-02-21T08:09:41.581Z,153.70
2018-02-21T08:10:41.604Z,144.30
2018-02-21T08:11:41.554Z,146.70
2018-02-21T08:12:41.498Z,145.10
2018-02-21T08:13:41.459Z,147.60
2018-02-21T08:14:41.488Z,150.00
2018-02-21T08:15:41.450Z,155.80
2018-02-21T08:16:41.376Z,152.10
2018-02-21T08:17:41.387Z,150.70
2018-02-21T08:18:41.366Z,150.70
2018-02-21T08:19:41.329Z,150.20
2018-02-21T08:20:41.262Z,147.60
2018-02-21T08:21:41.268Z,147.90
2018-02-21T08:22:41.260Z,147.40
2018-02-21T08:23:41.209Z,148.10
2018-02-21T08:24:41.180Z,149.60
2018-02-21T08:25:41.152Z,147.30
2018-02-21T08:26:41.087Z,146.20
2018-02-21T08:27:41.077Z,150.40
2018-02-21T08:28:41.028Z,148.30
2018-02-21T08:29:41.022Z,145.20
2018-02-21T08:30:40.981Z,141.90
2018-02-21T08:31:40.936Z,148.40
2018-02-21T08:32:40.918Z,146.70
2018-02-21T08:33:40.890Z,144.90
2018-02-21T08:34:40.886Z,144.90
2018-02-21T08:35:40.824Z,147.40
2018-02-21T08:36:40.797Z,150.40
2018-02-21T08:37:40.770Z,148.60
2018-02-21T08:38:40.743Z,145.40
2018-02-21T08:39:40.708Z,143.50
2018-02-21T08:40:40.705Z,146.80
2018-02-21T08:41:40.652Z,143.70
2018-02-21T08:42:40.629Z,147.40
2018-02-21T08:43:40.594Z,144.60
2018-02-21T08:44:40.570Z,140.90
2018-02-21T08:45:40.541Z,146.50
2018-02-21T08:46:40.516Z,141.10
2018-02-21T08:47:40.479Z,145.70
2018-02-21T08:48:40.449Z,144.90
2018-02-21T08:49:40.451Z,144.40
2018-02-21T08:50:40.391Z,143.50
2018-02-21T08:51:40.362Z,144.60
2018-02-21T08:52:40.335Z,141.20
2018-02-21T08:53:40.315Z,138.90
2018-02-21T08:54:40.282Z,141.20
2018-02-21T08:55:40.248Z,142.20
2018-02-21T08:56:40.223Z,142.30
2018-02-21T08:57:40.201Z,138.90
2018-02-21T08:58:40.162Z,136.30
2018-02-21T08:59:40.137Z,137.10
2018-02-21T09:00:40.106Z,143.80
2018-02-21T09:01:40.079Z,141.00
2018-02-21T09:02:40.050Z,140.40
2018-02-21T09:03:40.026Z,138.40
2018-02-21T09:04:39.993Z,140.70
2018-02-21T09:05:39.965Z,144.40
2018-02-21T09:06:39.936Z,141.20
2018-02-21T09:07:39.905Z,142.20
2018-02-21T09:08:39.873Z,143.70
2018-02-21T09:09:39.850Z,136.10
2018-02-21T09:10:39.814Z,140.30
2018-02-21T09:11:39.794Z,144.60
2018-02-21T09:12:39.764Z,139.90
2018-02-21T09:13:39.734Z,137.70
2018-02-21T09:14:39.704Z,138.00
2018-02-21T09:15:39.678Z,136.50
2018-02-21T09:16:39.762Z,139.60
2018-02-21T09:17:39.621Z,140.90
2018-02-21T09:18:39.586Z,138.20
2018-02-21T09:19:39.563Z,139.60
2018-02-21T09:20:39.536Z,139.90
2018-02-21T09:21:39.503Z,138.00
2018-02-21T09:22:39.504Z,133.30
2018-02-21T09:23:39.502Z,132.70
2018-02-21T09:24:39.417Z,132.40
2018-02-21T09:25:39.419Z,136.90
2018-02-21T09:26:39.405Z,133.20
2018-02-21T09:27:39.382Z,135.00
2018-02-21T09:28:39.307Z,136.50
2018-02-21T09:29:39.317Z,132.90
2018-02-21T09:30:39.295Z,131.00
2018-02-21T09:31:39.260Z,128.50
2018-02-21T09:32:39.229Z,130.50
2018-02-21T09:33:39.205Z,123.50
2018-02-21T09:34:39.175Z,128.00
2018-02-21T09:35:39.139Z,129.80
2018-02-21T09:36:39.111Z,124.20
2018-02-21T09:37:39.089Z,124.50
2018-02-21T09:38:39.065Z,123.30
2018-02-21T09:39:39.028Z,121.60
2018-02-21T09:40:38.996Z,122.00
2018-02-21T09:41:38.935Z,119.70
2018-02-21T09:42:38.912Z,124.40
2018-02-21T09:43:38.882Z,124.50
2018-02-21T09:44:38.846Z,122.50
2018-02-21T09:45:38.826Z,122.90
2018-02-21T09:46:38.793Z,126.20
2018-02-21T09:47:38.761Z,118.20
2018-02-21T09:48:38.735Z,118.10
2018-02-21T09:49:38.704Z,118.40
2018-02-21T09:50:38.678Z,119.30
2018-02-21T09:51:38.648Z,118.70
2018-02-21T09:52:38.623Z,112.90
2018-02-21T09:53:38.594Z,113.50
2018-02-21T09:54:38.563Z,110.80
2018-02-21T09:55:38.540Z,106.70
2018-02-21T09:56:38.507Z,103.20
2018-02-21T09:57:38.480Z,100.60
2018-02-21T09:58:38.452Z,99.50
2018-02-21T09:59:38.420Z,98.70
2018-02-21T10:00:38.393Z,97.00
2018-02-21T10:01:38.370Z,100.50
2018-02-21T10:02:38.336Z,101.50
2018-02-21T10:03:38.310Z,93.40
2018-02-21T10:04:38.275Z,94.80
2018-02-21T10:05:38.254Z,93.10
2018-02-21T10:06:38.224Z,89.90
2018-02-21T10:07:38.196Z,95.20
2018-02-21T10:08:38.165Z,90.70
2018-02-21T10:09:38.140Z,92.10
2018-02-21T10:10:38.111Z,87.50
2018-02-21T10:11:38.079Z,90.00
2018-02-21T10:12:38.055Z,86.80
2018-02-21T10:13:38.028Z,87.20
2018-02-21T10:14:37.998Z,86.80
2018-02-21T10:15:37.971Z,90.40
2018-02-21T10:16:37.938Z,91.70
2018-02-21T10:17:37.914Z,90.60
2018-02-21T10:18:37.882Z,88.60
2018-02-21T10:19:37.918Z,89.10
2018-02-21T10:20:37.838Z,89.30
2018-02-21T10:21:37.796Z,84.70
2018-02-21T10:22:37.769Z,88.60
2018-02-21T10:23:37.743Z,87.60
2018-02-21T10:24:37.716Z,86.10
2018-02-21T10:25:37.685Z,84.90
2018-02-21T10:26:37.655Z,83.40
2018-02-21T10:27:37.625Z,84.50
2018-02-21T10:28:37.602Z,83.80
2018-02-21T10:29:37.575Z,82.30
2018-02-21T10:30:37.543Z,84.70
2018-02-21T10:31:37.516Z,83.40
2018-02-21T10:32:37.487Z,82.60
2018-02-21T10:33:37.462Z,81.00
2018-02-21T10:34:37.447Z,80.30
2018-02-21T10:35:37.399Z,75.40
2018-02-21T10:36:37.374Z,77.50
2018-02-21T10:37:37.347Z,76.90
2018-02-21T10:38:37.320Z,76.20
2018-02-21T10:39:37.288Z,74.10
2018-02-21T10:40:37.261Z,77.00
2018-02-21T10:41:37.237Z,76.60
2018-02-21T10:42:37.278Z,77.20
2018-02-21T10:43:37.176Z,76.50
2018-02-21T10:44:37.149Z,73.90
2018-02-21T10:45:37.132Z,76.70
2018-02-21T10:46:37.093Z,72.70
2018-02-21T10:47:37.061Z,75.80
2018-02-21T10:48:37.032Z,77.90
2018-02-21T10:49:37.009Z,80.30
2018-02-21T10:50:36.980Z,79.80
2018-02-21T10:51:36.949Z,80.90
2018-02-21T10:52:36.922Z,79.90
2018-02-21T10:53:36.891Z,77.70
2018-02-21T10:54:36.869Z,76.60
2018-02-21T10:55:36.832Z,73.40
2018-02-21T10:56:36.810Z,74.90
2018-02-21T10:57:36.777Z,76.60
2018-02-21T10:58:36.751Z,75.30
2018-02-21T10:59:36.736Z,73.80
2018-02-21T11:00:36.695Z,79.50
2018-02-21T11:01:36.671Z,69.40
2018-02-21T11:02:36.641Z,66.80
2018-02-21T11:03:36.610Z,66.50
2018-02-21T11:04:36.580Z,63.80
2018-02-21T11:05:36.556Z,67.50
2018-02-21T11:06:36.524Z,66.60
2018-02-21T11:07:36.497Z,69.10
2018-02-21T11:08:36.467Z,72.00
2018-02-21T11:09:36.444Z,74.90
2018-02-21T11:10:36.411Z,69.90
2018-02-21T11:11:36.386Z,71.60
2018-02-21T11:12:36.354Z,69.80
2018-02-21T11:13:36.329Z,72.10
2018-02-21T11:14:36.301Z,67.90
2018-02-21T11:15:36.276Z,68.80
2018-02-21T11:16:36.259Z,67.40
2018-02-21T11:17:36.213Z,67.30
2018-02-21T11:18:36.210Z,68.30
2018-02-21T11:19:36.160Z,68.20
2018-02-21T11:20:36.134Z,68.40
2018-02-21T11:21:36.101Z,69.40
2018-02-21T11:22:36.071Z,65.40
2018-02-21T11:23:36.060Z,65.70
2018-02-21T11:24:36.017Z,67.90
2018-02-21T11:25:35.989Z,66.70
2018-02-21T11:26:35.960Z,68.00
2018-02-21T11:27:35.947Z,64.40
2018-02-21T11:28:35.908Z,60.40
2018-02-21T11:29:35.876Z,63.40
2018-02-21T11:30:35.848Z,58.20
2018-02-21T11:31:35.822Z,57.00
2018-02-21T11:32:35.794Z,57.50
2018-02-21T11:33:35.763Z,60.80
2018-02-21T11:34:36.130Z,59.10
2018-02-21T11:35:35.843Z,58.50
2018-02-21T11:36:35.685Z,58.40
2018-02-21T11:37:35.681Z,61.00
2018-02-21T11:38:35.626Z,59.30
2018-02-21T11:39:35.594Z,56.40
2018-02-21T11:40:35.569Z,56.40
2018-02-21T11:41:35.544Z,59.60
2018-02-21T11:42:35.514Z,59.70
2018-02-21T11:43:35.482Z,62.30
2018-02-21T11:44:35.454Z,61.20
2018-02-21T11:45:35.430Z,58.60
2018-02-21T11:46:35.401Z,56.00
2018-02-21T11:47:35.368Z,58.10
2018-02-21T11:48:35.348Z,55.70
2018-02-21T11:49:35.364Z,54.60
2018-02-21T11:50:35.330Z,58.20
2018-02-21T11:51:35.261Z,54.30
2018-02-21T11:52:35.235Z,54.40
2018-02-21T11:53:35.258Z,56.90
2018-02-21T11:54:35.176Z,55.60
2018-02-21T11:55:35.149Z,56.30
2018-02-21T11:56:35.119Z,55.20
2018-02-21T11:57:35.140Z,53.00
2018-02-21T11:58:35.065Z,53.10
2018-02-21T11:59:35.084Z,53.60
2018-02-21T12:00:35.007Z,56.50
2018-02-21T12:01:34.983Z,55.60
2018-02-21T12:02:34.951Z,57.30
2018-02-21T12:03:34.927Z,53.70
2018-02-21T12:04:34.957Z,52.40
2018-02-21T12:05:34.866Z,51.60
2018-02-21T12:06:34.887Z,49.30
2018-02-21T12:07:34.855Z,53.70
2018-02-21T12:08:34.848Z,49.20
2018-02-21T12:09:34.799Z,50.00
2018-02-21T12:10:34.749Z,53.60
2018-02-21T12:11:34.717Z,52.40
2018-02-21T12:12:34.675Z,53.50
2018-02-21T12:13:34.660Z,54.10
2018-02-21T12:14:34.619Z,50.80
2018-02-21T12:15:34.597Z,51.60
2018-02-21T12:16:34.584Z,54.40
2018-02-21T12:17:34.533Z,53.70
2018-02-21T12:18:34.506Z,56.70
2018-02-21T12:19:34.480Z,52.40
2018-02-21T12:20:34.445Z,51.70
2018-02-21T12:21:34.456Z,52.70
2018-02-21T12:22:34.523Z,53.00
2018-02-21T12:23:34.371Z,53.70
2018-02-21T12:24:34.339Z,55.30
2018-02-21T12:25:34.313Z,59.20
2018-02-21T12:26:34.283Z,62.40
2018-02-21T12:27:34.257Z,58.70
2018-02-21T12:28:34.230Z,60.40
2018-02-21T12:29:34.202Z,58.30
2018-02-21T12:30:34.175Z,59.80
2018-02-21T12:31:34.144Z,59.30
2018-02-21T12:32:34.121Z,61.50
2018-02-21T12:33:34.100Z,59.00